地図

経路データ

SID SEASON NUMBER BASIN SUBBASIN NAME ISO_TIME NATURE LAT LON WMO_WIND WMO_PRES WMO_AGENCY TRACK_TYPE DIST2LAND LANDFALL IFLAG USA_AGENCY USA_ATCF_ID USA_LAT USA_LON USA_RECORD USA_STATUS USA_WIND USA_PRES USA_SSHS USA_R34_NE USA_R34_SE USA_R34_SW USA_R34_NW USA_R50_NE USA_R50_SE USA_R50_SW USA_R50_NW USA_R64_NE USA_R64_SE USA_R64_SW USA_R64_NW USA_POCI USA_ROCI USA_RMW USA_EYE TOKYO_LAT TOKYO_LON TOKYO_GRADE TOKYO_WIND TOKYO_PRES TOKYO_R50_DIR TOKYO_R50_LONG TOKYO_R50_SHORT TOKYO_R30_DIR TOKYO_R30_LONG TOKYO_R30_SHORT TOKYO_LAND CMA_LAT CMA_LON CMA_CAT CMA_WIND CMA_PRES HKO_LAT HKO_LON HKO_CAT HKO_WIND HKO_PRES NEWDELHI_LAT NEWDELHI_LON NEWDELHI_GRADE NEWDELHI_WIND NEWDELHI_PRES NEWDELHI_CI NEWDELHI_DP NEWDELHI_POCI REUNION_LAT REUNION_LON REUNION_TYPE REUNION_WIND REUNION_PRES REUNION_TNUM REUNION_CI REUNION_RMW REUNION_R34_NE REUNION_R34_SE REUNION_R34_SW REUNION_R34_NW REUNION_R50_NE REUNION_R50_SE REUNION_R50_SW REUNION_R50_NW REUNION_R64_NE REUNION_R64_SE REUNION_R64_SW REUNION_R64_NW BOM_LAT BOM_LON BOM_TYPE BOM_WIND BOM_PRES BOM_TNUM BOM_CI BOM_RMW BOM_R34_NE BOM_R34_SE BOM_R34_SW BOM_R34_NW BOM_R50_NE BOM_R50_SE BOM_R50_SW BOM_R50_NW BOM_R64_NE BOM_R64_SE BOM_R64_SW BOM_R64_NW BOM_ROCI BOM_POCI BOM_EYE BOM_POS_METHOD BOM_PRES_METHOD NADI_LAT NADI_LON NADI_CAT NADI_WIND NADI_PRES WELLINGTON_LAT WELLINGTON_LON WELLINGTON_WIND WELLINGTON_PRES DS824_LAT DS824_LON DS824_STAGE DS824_WIND DS824_PRES TD9636_LAT TD9636_LON TD9636_STAGE TD9636_WIND TD9636_PRES TD9635_LAT TD9635_LON TD9635_WIND TD9635_PRES TD9635_ROCI NEUMANN_LAT NEUMANN_LON NEUMANN_CLASS NEUMANN_WIND NEUMANN_PRES MLC_LAT MLC_LON MLC_CLASS MLC_WIND MLC_PRES USA_GUST BOM_GUST BOM_GUST_PER REUNION_GUST REUNION_GUST_PER USA_SEAHGT USA_SEARAD_NE USA_SEARAD_SE USA_SEARAD_SW USA_SEARAD_NW STORM_SPEED STORM_DIR
1889292N15118 1889 35 WP MM NOT_NAMED 1889-10-19 04:00:00 NR 15.2000 117.700 main 232 232 __________O___ -1 15.2000 117.700 7 10 299
1889292N15118 1889 35 WP MM NOT_NAMED 1889-10-19 06:00:00 NR 15.3582 117.406 main 255 255 __________P___ -1 15.3582 117.406 7 10 299
1889292N15118 1889 35 WP MM NOT_NAMED 1889-10-19 09:00:00 NR 15.5920 116.962 main 292 303 __________P___ -1 15.5920 116.962 7 10 298
1889292N15118 1889 35 WP MM NOT_NAMED 1889-10-19 12:00:00 NR 15.8180 116.513 main 343 343 __________P___ -1 15.8180 116.513 7 10 297
1889292N15118 1889 35 WP MM NOT_NAMED 1889-10-19 15:00:00 NR 16.0321 116.055 main 384 395 __________P___ -1 16.0321 116.055 7 10 296
1889292N15118 1889 35 WP MM NOT_NAMED 1889-10-19 16:00:00 NR 16.1000 115.900 main 406 406 __________O___ -1 16.1000 115.900 3 10 294
1889292N15118 1889 35 WP MM NOT_NAMED 1889-10-19 18:00:00 NR 16.2302 115.585 main 438 438 __________P___ -1 16.2302 115.585 3 10 292
1889292N15118 1889 35 WP MM NOT_NAMED 1889-10-19 21:00:00 NR 16.4132 115.095 main 493 493 __________P___ -1 16.4132 115.095 3 10 290
1889292N15118 1889 35 WP MM NOT_NAMED 1889-10-20 00:00:00 NR 16.5844 114.571 main 499 438 __________P___ -1 16.5844 114.571 3 11 288
1889292N15118 1889 35 WP MM NOT_NAMED 1889-10-20 03:00:00 NR 16.7471 114.002 main 438 414 __________P___ -1 16.7471 114.002 3 12 286
1889292N15118 1889 35 WP MM NOT_NAMED 1889-10-20 04:00:00 NR 16.8000 113.800 main 414 373 __________O___ -1 16.8000 113.800 4 13 286
1889292N15118 1889 35 WP MM NOT_NAMED 1889-10-20 06:00:00 NR 16.9189 113.373 main 373 300 __________P___ -1 16.9189 113.373 4 13 285
1889292N15118 1889 35 WP MM NOT_NAMED 1889-10-20 09:00:00 NR 17.0911 112.690 main 300 238 __________P___ -1 17.0911 112.690 4 14 284
1889292N15118 1889 35 WP MM NOT_NAMED 1889-10-20 12:00:00 NR 17.2449 111.972 main 238 168 __________P___ -1 17.2449 111.972 4 14 281
1889292N15118 1889 35 WP MM NOT_NAMED 1889-10-20 15:00:00 NR 17.3679 111.242 main 168 154 __________P___ -1 17.3679 111.242 4 14 280
1889292N15118 1889 35 WP MM NOT_NAMED 1889-10-20 16:00:00 NR 17.4000 111.000 main 154 123 __________O___ -1 17.4000 111.000 7 14 277
1889292N15118 1889 35 WP MM NOT_NAMED 1889-10-20 18:00:00 NR 17.4493 110.521 main 123 79 __________P___ -1 17.4493 110.521 7 14 275
1889292N15118 1889 35 WP MM NOT_NAMED 1889-10-20 21:00:00 NR 17.4916 109.815 main 79 78 __________P___ -1 17.4916 109.815 7 13 272
1889292N15118 1889 35 WP MM NOT_NAMED 1889-10-21 00:00:00 NR 17.5057 109.119 main 89 89 __________P___ -1 17.5057 109.119 7 13 270
1889292N15118 1889 35 WP MM NOT_NAMED 1889-10-21 03:00:00 NR 17.5028 108.429 main 116 116 __________P___ -1 17.5028 108.429 7 13 270
1889292N15118 1889 35 WP MM NOT_NAMED 1889-10-21 04:00:00 NR 17.5000 108.200 main 119 __________O___ -1 17.5000 108.200 7 13 269

デジタル台風データ・検索

IBTrACS Databaseについて

本データベースは、米国NOAAが公開する1842年以降の世界の熱帯低気圧のベストトラックデータアーカイブInternational Best Track Archive for Climate Stewardship (IBTrACS)を、ウェブで閲覧しやすい形式に変換したものです。

最終更新日:2021-12-03